Tiempo atmosférico en la estación meteorológica de Arico, Santa Cruz de Tenerife (418 m.)



Fecha
DESCASC
Temp. máxima en grados centígrados (hora)
DESCASC
Temp. mínima en grados centígrados (hora)
DESCASC
Temp. media en grados centígrados
DESCASC
Racha de viento máxima en m/sg (hora)
DESCASC
Velocidad máxima media en intervalos de 10 minutos(hora)
DESCASC
Precipitaciones diarias en mm
DESCASC
Precipitaciones de 00:00 a 06:00 en mm
DESCASC
Precipitaciones de 06:00 a 12:00 en mm
DESCASC
Precipitaciones de 12:00 a 18:00 en mm
DESCASC
Precipitaciones de 18:00 a 24:00 en mm
DESCASC
08-12-2019 19.4 (12:00) 14.3 (06:30) 16.8 16.39 (13:00) 10.28 (22:00) 0 0 0 0 0
07-12-2019 19.9 (12:40) 13.8 (07:20) 16.8 14.72 (12:50) 9.44 (10:10) 0 0 0 0 0
06-12-2019 21.6 (13:10) 13.5 (00:00) 17.6 14.72 (11:50) 9.17 (13:50) 0 0 0 0 0
05-12-2019 19.4 (12:40) 13.5 (00:00) 16.4 10.28 (16:20) 6.39 (16:30) 0.4 0.2 0 0 0.2
04-12-2019 20.8 (11:10) 13.6 (03:30) 17.2 7.5 (15:30) 4.72 (15:40) 0 0 0 0 0
03-12-2019 19.1 (14:40) 13.9 (00:00) 16.5 9.17 (15:30) 5 (00:30) 0 0 0 0 0
02-12-2019 21.7 (11:30) 14.2 (00:00) 18 8.89 (12:50) 5.28 (23:30) 0 0 0 0 0
01-12-2019 20.5 (13:20) 14.2 (00:00) 17.3 14.72 (13:50) 6.94 (11:40) 0 0 0 0 0
30-11-2019 25 (11:10) 15.2 (00:00) 20.1 7.22 (15:40) 4.72 (15:40) 0 0 0 0 0
29-11-2019 26.4 (14:20) 15.5 (00:00) 20.9 6.11 (04:40) 3.61 (20:40) 0 0 0 0 0
28-11-2019 21.6 (14:10) 13.9 (06:20) 17.8 7.78 (09:30) 5 (09:50) 0 0 0 0 0
27-11-2019 20.8 (13:10) 14.4 (00:00) 17.6 9.44 (10:20) 6.39 (10:00) 0 0 0 0 0
26-11-2019 21.1 (12:30) 14.4 (00:00) 17.8 8.33 (10:10) 5.56 (11:00) 0 0 0 0 0
25-11-2019 20.9 (13:00) 14.3 (05:30) 17.6 8.89 (12:20) 5.83 (09:10) 0 0 0 0 0
24-11-2019 20 (09:50) 15 (00:00) 17.5 9.72 (11:50) 6.39 (17:40) 0 0 0 0 0
23-11-2019 23 (11:50) 15.5 (00:00) 19.3 5.83 (12:00) 3.89 (07:00) 0 0 0 0 0
22-11-2019 23 (13:40) 15.2 (00:00) 19.1 8.33 (12:50) 4.72 (15:30) 0 0 0 0 0
21-11-2019 21.7 (11:10) 14.9 (00:00) 18.3 5.56 (11:20) 3.33 (13:10) 0 0 0 0 0
20-11-2019 22.3 (13:30) 13.6 (06:20) 17.9 6.11 (13:00) 4.17 (01:00) 0 0 0 0 0
19-11-2019 23.1 (13:00) 13.8 (00:00) 18.5 6.67 (01:50) 5 (02:20) 0 0 0 0 0
18-11-2019 20.2 (11:50) 13.8 (00:00) 17 13.06 (01:50) 8.06 (01:10) 1 0 0 1 0
17-11-2019 17.5 (13:00) 13.5 (00:00) 15.5 13.89 (14:40) 8.89 (14:10) 0 0 0 0 0
16-11-2019 20.6 (13:00) 13 (00:00) 16.8 18.33 (12:10) 10.28 (11:20) 0 0 0 0 0
15-11-2019 20.1 (11:10) 14 (00:00) 17.1 15 (16:00) 9.72 (13:10) 0 0 0 0 0
14-11-2019 21.4 (12:20) 16.3 (00:00) 18.8 16.39 (23:20) 11.11 (23:20) 0 0 0 0 0
13-11-2019 22 (01:10) 16.6 (00:00) 19.3 17.5 (12:50) 11.11 (09:20) 0 0 0 0 0
12-11-2019 22.3 (13:10) 15.9 (00:00) 19.1 19.72 (11:50) 11.67 (14:20) 0 0 0 0 0
11-11-2019 21.5 (11:20) 16.4 (04:00) 18.9 20 (09:30) 13.33 (09:30) 0 0 0 0 0
10-11-2019 21 (13:50) 16.3 (00:00) 18.6 20 (03:00) 13.06 (11:10) 0 0 0 0 0

Gráficas

Temp. máximas Temp. mínimas Temp. medias Precipitaciones Rachas de viento máximas Velocidades máximas media en intervalos de 10 minutos

Datos horarios

Fecha y hora oficial Temperatura (ºC) Velocidad del viento (km/h) Dirección del viento Racha (km/h) Dirección de racha Precipitación (mm) Presión (hPa) Tendencia (hPa) Humedad (%)
2019-12-09 23:00:00 13.8 13 Norte 30 Norte 0 -- -- 75
2019-12-09 22:00:00 13.9 13 Nordeste 32 Nordeste 0 -- -- 75
2019-12-09 21:00:00 14.6 20 Nordeste 33 Nordeste 0 -- -- 74
2019-12-09 20:00:00 14.6 18 Nordeste 29 Nordeste 0 -- -- 76
2019-12-09 19:00:00 14.9 17 Nordeste 32 Nordeste 0 -- -- 82
2019-12-09 18:00:00 15.5 18 Nordeste 33 Nordeste 0 -- -- 81
2019-12-09 17:00:00 16.4 22 Nordeste 40 Nordeste 0 -- -- 78
2019-12-09 16:00:00 17.9 22 Nordeste 45 Nordeste 0 -- -- 72
2019-12-09 15:00:00 18.6 24 Nordeste 41 Este 0 -- -- 69
2019-12-09 14:00:00 19.3 23 Nordeste 39 Nordeste 0 -- -- 65
2019-12-09 13:00:00 19.2 25 Nordeste 39 Este 0 -- -- 66
2019-12-09 12:00:00 19.1 23 Nordeste 40 Este 0 -- -- 64
2019-12-09 11:00:00 18.6 21 Nordeste 38 Nordeste 0 -- -- 68
2019-12-09 10:00:00 17.8 21 Nordeste 35 Nordeste 0 -- -- 66
2019-12-09 09:00:00 16.4 17 Nordeste 35 Norte 0 -- -- 65
2019-12-09 08:00:00 14.5 18 Nordeste 34 Nordeste 0 -- -- 79
2019-12-09 07:00:00 14.7 21 Nordeste 41 Nordeste 0 -- -- 69
2019-12-09 06:00:00 15 21 Nordeste 49 Nordeste 0 -- -- 63
2019-12-09 05:00:00 14.9 27 Nordeste 49 Nordeste 0 -- -- 70
2019-12-09 04:00:00 15.8 27 Nordeste 49 Nordeste 0 -- -- 61
2019-12-09 03:00:00 15.6 33 Nordeste 54 Nordeste 0 -- -- 59
2019-12-09 02:00:00 15.3 31 Nordeste 51 Nordeste 0 -- -- 64
2019-12-09 01:00:00 15 32 Nordeste 48 Nordeste 0 -- -- 65
2019-12-09 00:00:00 14.7 26 Nordeste 46 Nordeste 0 -- -- 76
2019-12-08 23:00:00 15.7 24 Nordeste 56 Nordeste 0 -- -- 66
2019-12-08 22:00:00 16.2 37 Nordeste 54 Nordeste 0 -- -- 63
2019-12-08 21:00:00 15.7 31 Nordeste 52 Nordeste 0 -- -- 68
2019-12-08 20:00:00 15.3 26 Nordeste 40 Nordeste 0 -- -- 79
2019-12-08 19:00:00 16.2 29 Nordeste 52 Nordeste 0 -- -- 67
2019-12-08 18:00:00 16.3 29 Nordeste 47 Nordeste 0 -- -- 69
2019-12-08 17:00:00 17.2 28 Nordeste 49 Nordeste 0 -- -- 76
2019-12-08 16:00:00 18.1 33 Nordeste 50 Nordeste 0 -- -- 70
2019-12-08 15:00:00 18.5 29 Nordeste 57 Nordeste 0 -- -- 68
2019-12-08 14:00:00 19 29 Nordeste 55 Nordeste 0 -- -- 68
2019-12-08 13:00:00 17.8 34 Nordeste 59 Nordeste 0 -- -- 71
2019-12-08 12:00:00 19.4 28 Nordeste 50 Nordeste 0 -- -- 63
2019-12-08 11:00:00 18.4 28 Nordeste 51 Nordeste 0 -- -- 68
2019-12-08 10:00:00 17.6 24 Nordeste 45 Este 0 -- -- 63
2019-12-08 09:00:00 15.6 19 Nordeste 39 Nordeste 0 -- -- 70
2019-12-08 08:00:00 14.8 24 Nordeste 35 Nordeste 0 -- -- 72
2019-12-08 07:00:00 14.3 17 Nordeste 35 Nordeste 0 -- -- 63
2019-12-08 06:00:00 14.6 22 Nordeste 38 Nordeste 0 -- -- 70
2019-12-08 05:00:00 14.5 23 Nordeste 34 Nordeste 0 -- -- 72
2019-12-08 04:00:00 14.7 22 Nordeste 34 Nordeste 0 -- -- 75
2019-12-08 03:00:00 14.5 16 Nordeste 39 Nordeste 0 -- -- 80
2019-12-08 02:00:00 14.8 23 Nordeste 32 Nordeste 0 -- -- 79
2019-12-08 01:00:00 15 19 Nordeste 37 Nordeste 0 -- -- 75
2019-12-08 00:00:00 14.9 17 Nordeste 35 Nordeste 0 -- -- 73
2019-12-07 23:00:00 15.1 19 Nordeste 35 Nordeste 0 -- -- 77
2019-12-07 22:00:00 15.2 19 Nordeste 36 Nordeste 0 -- -- 77
2019-12-07 21:00:00 15.5 18 Nordeste 37 Nordeste 0 -- -- 71
2019-12-07 20:00:00 14.6 5 Norte 18 Norte 0 -- -- 69
2019-12-07 19:00:00 15.5 13 Nordeste 34 Nordeste 0 -- -- 74
2019-12-07 18:00:00 16.2 20 Nordeste 36 Nordeste 0 -- -- 79
2019-12-07 17:00:00 16.7 22 Nordeste 44 Nordeste 0 -- -- 78
2019-12-07 16:00:00 17.4 28 Nordeste 48 Nordeste 0 -- -- 75
2019-12-07 15:00:00 18.8 34 Nordeste 51 Nordeste 0 -- -- 68
2019-12-07 14:00:00 19.4 29 Nordeste 47 Este 0 -- -- 68
2019-12-07 13:00:00 19.9 27 Nordeste 53 Nordeste 0 -- -- 66
2019-12-07 12:00:00 19.6 29 Nordeste 43 Nordeste 0 -- -- 65
2019-12-07 11:00:00 18.4 26 Nordeste 50 Nordeste 0 -- -- 73
2019-12-07 10:00:00 18.3 25 Nordeste 46 Nordeste 0 -- -- 67
2019-12-07 09:00:00 16.8 21 Nordeste 41 Nordeste 0 -- -- 63
2019-12-07 08:00:00 14.3 11 Norte 28 Norte 0 -- -- 68
2019-12-07 07:00:00 14.1 8 Nordeste 28 Nordeste 0 -- -- 78
2019-12-07 06:00:00 14.5 11 Nordeste 35 Nordeste 0 -- -- 81
2019-12-07 05:00:00 15.3 20 Nordeste 35 Nordeste 0 -- -- 85
2019-12-07 04:00:00 15.1 5 Norte 13 Este 0 -- -- 70
2019-12-07 03:00:00 14.8 9 Nordeste 19 Oeste 0 -- -- 69
2019-12-07 02:00:00 14.4 11 Sudoeste 24 Norte 0 -- -- 74
2019-12-07 01:00:00 15.4 14 Nordeste 33 Norte 0 -- -- 67
2019-12-07 00:00:00 15.6 23 Nordeste 38 Norte 0 -- -- 67
2019-12-06 23:00:00 15.5 8 Nordeste 22 Nordeste 0 -- -- 70
2019-12-06 22:00:00 15.7 9 Noroeste 22 Noroeste 0 -- -- 69
2019-12-06 21:00:00 16.8 6 Sur 37 Nordeste 0 -- -- 60
2019-12-06 20:00:00 17.6 25 Nordeste 41 Nordeste 0 -- -- 47
2019-12-06 19:00:00 16.9 23 Nordeste 40 Nordeste 0 -- -- 56
2019-12-06 18:00:00 17.4 7 Este 25 Sudoeste 0 -- -- 62
2019-12-06 17:00:00 19 12 Sudoeste 27 Sudeste 0 -- -- 56
2019-12-06 16:00:00 20.8 10 Sudeste 32 Sudoeste 0 -- -- 51
2019-12-06 15:00:00 20.6 18 Sudoeste 48 Nordeste 0 -- -- 54
2019-12-06 14:00:00 20.2 28 Nordeste 52 Nordeste 0 -- -- 55
2019-12-06 13:00:00 21.3 23 Este 47 Nordeste 0 -- -- 49
2019-12-06 12:00:00 19.8 30 Nordeste 53 Nordeste 0 -- -- 52
2019-12-06 11:00:00 19.8 28 Nordeste 50 Nordeste 0 -- -- 52
2019-12-06 10:00:00 18.9 10 Sudoeste 30 Oeste 0 -- -- 53
2019-12-06 09:00:00 16.6 6 Norte 21 Sudoeste 0 -- -- 60
2019-12-06 08:00:00 14.4 13 Sudoeste 22 Sudoeste 0 -- -- 66
2019-12-06 07:00:00 14 7 Oeste 22 Oeste 0 -- -- 76
2019-12-06 06:00:00 14 13 Sudoeste 22 Sudoeste 0 -- -- 71
2019-12-06 05:00:00 14.1 11 Oeste 19 Sudoeste 0 -- -- 67
2019-12-06 04:00:00 15 17 Oeste 27 Sudoeste 0 -- -- 63
2019-12-06 03:00:00 15.6 18 Nordeste 42 Nordeste 0 -- -- 61
2019-12-06 02:00:00 14 3 Noroeste 20 Oeste 0 -- -- 71
2019-12-06 01:00:00 14.4 10 Norte 21 Sur 0 -- -- 73
2019-12-06 00:00:00 13.5 9 Norte 18 Este 0.2 -- -- 80
2019-12-05 23:00:00 14.5 8 Sudoeste 15 Este 0 -- -- 66
2019-12-05 22:00:00 15.3 11 Este 23 Este 0 -- -- 62
2019-12-05 21:00:00 14.9 7 Noroeste 19 Noroeste 0 -- -- 67
2019-12-05 20:00:00 15.3 6 Oeste 19 Sur 0 -- -- 69
2019-12-05 19:00:00 15.2 5 Este 21 Sur 0 -- -- 67
2019-12-05 18:00:00 16.6 8 Sur 30 Sur 0 -- -- 59
2019-12-05 17:00:00 18.2 8 Sudeste 37 Sur 0 -- -- 56
2019-12-05 16:00:00 18 13 Oeste 36 Sudoeste 0 -- -- 52
2019-12-05 15:00:00 18.1 16 Sur 34 Sudoeste 0 -- -- 58
2019-12-05 14:00:00 17.7 14 Sudoeste 28 Norte 0 -- -- 61
2019-12-05 13:00:00 18.5 10 Sudeste 29 Sudeste 0 -- -- 62
2019-12-05 12:00:00 18.7 12 Sur 24 Sur 0 -- -- 63
2019-12-05 11:00:00 18 13 Sudeste 28 Sur 0 -- -- 64
2019-12-05 10:00:00 17.9 14 Sudeste 23 Sur 0 -- -- 69
2019-12-05 09:00:00 15.3 7 Norte 35 Sudoeste 0 -- -- 70
2019-12-05 08:00:00 13.8 13 Sur 27 Sudeste 0 -- -- 76
2019-12-05 07:00:00 13.6 6 Oeste 21 Este 0 -- -- 80
2019-12-05 06:00:00 13.9 9 Noroeste 18 Oeste 0 -- -- 77
2019-12-05 05:00:00 14.1 8 Sudoeste 19 Sudoeste 0 -- -- 79
2019-12-05 04:00:00 13.8 10 Noroeste 14 Noroeste 0 -- -- 83
2019-12-05 03:00:00 13.7 5 Oeste 16 Oeste 0 -- -- 86
2019-12-05 02:00:00 13.7 4 Norte 18 Norte -- -- -- 89
2019-12-05 01:00:00 14.8 9 Norte 15 Norte 0 -- -- 79
2019-12-05 00:00:00 15.3 7 Sudoeste 20 Sudoeste 0 -- -- 70
2019-12-04 23:00:00 15.1 12 Oeste 18 Oeste 0 -- -- 74
2019-12-04 22:00:00 14.9 7 Oeste 18 Oeste 0 -- -- 76
2019-12-04 21:00:00 14.9 4 Sudoeste 18 Oeste 0 -- -- 78
2019-12-04 20:00:00 15.8 7 Oeste 12 Oeste 0 -- -- 76
2019-12-04 19:00:00 16.2 7 Sur 18 Sudoeste 0 -- -- 74
2019-12-04 18:00:00 16.7 11 Sudoeste 17 Sudoeste 0 -- -- 72
2019-12-04 17:00:00 17.6 8 Sudeste 21 Sudeste 0 -- -- 69
2019-12-04 16:00:00 19.2 14 Sur 27 Sudoeste 0 -- -- 58
2019-12-04 15:00:00 18.7 14 Sudoeste 23 Sudoeste 0 -- -- 58
2019-12-04 14:00:00 18.3 14 Sur 22 Sudoeste 0 -- -- 59
2019-12-04 13:00:00 18.9 11 Sur 19 Sudeste 0 -- -- 57
2019-12-04 12:00:00 19.2 9 Sudeste 17 Sur 0 -- -- 51
2019-12-04 11:00:00 20.7 6 Este 13 Este 0 -- -- 52
2019-12-04 10:00:00 17.4 4 Sudeste 8 Sudeste 0 -- -- 63
2019-12-04 09:00:00 14.8 2 Noroeste 10 Noroeste 0 -- -- 60
2019-12-04 08:00:00 14.7 4 Noroeste 11 Noroeste 0 -- -- 68
2019-12-04 07:00:00 14.4 8 Noroeste 11 Noroeste 0 -- -- 66
2019-12-04 06:00:00 14.1 7 Noroeste 15 Noroeste 0 -- -- 71
2019-12-04 05:00:00 14.3 10 Noroeste 16 Noroeste 0 -- -- 68
2019-12-04 04:00:00 13.8 12 Noroeste 23 Noroeste 0 -- -- 69
2019-12-04 03:00:00 13.8 10 Noroeste 17 Noroeste 0 -- -- 71
2019-12-04 02:00:00 13.8 10 Noroeste 18 Noroeste 0 -- -- 71
2019-12-04 01:00:00 13.8 6 Noroeste 14 Noroeste 0 -- -- 68
2019-12-04 00:00:00 13.9 8 Noroeste 12 Noroeste 0 -- -- 72
2019-12-03 23:00:00 14.6 9 Noroeste 13 Noroeste 0 -- -- 66
2019-12-03 22:00:00 15.6 6 Noroeste 12 Oeste 0 -- -- 72
2019-12-03 21:00:00 15.9 5 Oeste 13 Oeste 0 -- -- 74
2019-12-03 20:00:00 15.8 4 Oeste 16 Oeste 0 -- -- 70
2019-12-03 19:00:00 15.8 6 Oeste 9 Noroeste 0 -- -- 68
2019-12-03 18:00:00 16.6 5 Sudoeste 16 Este 0 -- -- 67
2019-12-03 17:00:00 17.3 7 Nordeste 18 Este 0 -- -- 63
2019-12-03 16:00:00 17.7 12 Este 33 Este 0 -- -- 62
2019-12-03 15:00:00 18.9 10 Este 21 Este 0 -- -- 53
2019-12-03 14:00:00 18.8 12 Este 21 Nordeste 0 -- -- 52
2019-12-03 13:00:00 18.3 6 Este 20 Este 0 -- -- 58
2019-12-03 12:00:00 18.2 6 Este 17 Nordeste 0 -- -- 59
2019-12-03 11:00:00 18 9 Sudeste 18 Sudeste 0 -- -- 64
2019-12-03 10:00:00 18.3 6 Sur 12 Sur 0 -- -- 67
2019-12-03 09:00:00 17.4 6 Sudeste 18 Oeste 0 -- -- 69
2019-12-03 08:00:00 14.8 6 Oeste 15 Oeste 0 -- -- 70
2019-12-03 07:00:00 14.3 13 Noroeste 19 Noroeste 0 -- -- 72
2019-12-03 06:00:00 14.1 9 Noroeste 12 Noroeste 0 -- -- 73
2019-12-03 05:00:00 14.3 4 Norte 17 Noroeste 0 -- -- 73
2019-12-03 04:00:00 15 13 Noroeste 19 Oeste 0 -- -- 69
2019-12-03 03:00:00 14.9 9 Noroeste 12 Noroeste 0 -- -- 68
2019-12-03 02:00:00 15.4 5 Norte 19 Noroeste 0 -- -- 66
2019-12-03 01:00:00 15.2 14 Oeste 23 Oeste 0 -- -- 65
2019-12-03 00:00:00 15.2 18 Oeste 25 Oeste 0 -- -- 68
2019-12-02 23:00:00 14.9 18 Oeste 24 Oeste 0 -- -- 71
2019-12-02 22:00:00 15.2 13 Oeste 17 Oeste 0 -- -- 75
2019-12-02 21:00:00 15.5 7 Noroeste 12 Noroeste 0 -- -- 79
2019-12-02 20:00:00 16 4 Noroeste 7 Oeste 0 -- -- 79
2019-12-02 19:00:00 16.8 4 Sudeste 13 Sur 0 -- -- 75
2019-12-02 18:00:00 17.2 11 Sudoeste 21 Sur 0 -- -- 77
2019-12-02 17:00:00 17.3 14 Sur 21 Sudoeste 0 -- -- 78
2019-12-02 16:00:00 17.6 12 Sudoeste 21 Sur 0 -- -- 75
2019-12-02 15:00:00 18.1 10 Sur 20 Sudoeste 0 -- -- 74
2019-12-02 14:00:00 18.3 14 Sudoeste 28 Sudoeste 0 -- -- 71
2019-12-02 13:00:00 19.1 17 Sudoeste 32 Sur 0 -- -- 65
2019-12-02 12:00:00 20.2 14 Sur 26 Sur 0 -- -- 63
2019-12-02 11:00:00 20.8 10 Sur 22 Sur 0 -- -- 61
2019-12-02 10:00:00 19 3 Sur 11 Sudeste 0 -- -- 64
2019-12-02 09:00:00 16.4 4 Este 12 Nordeste 0 -- -- 72
2019-12-02 08:00:00 14.6 9 Noroeste 21 Oeste 0 -- -- 67
2019-12-02 07:00:00 14.8 15 Oeste 21 Sudoeste 0 -- -- 78
2019-12-02 06:00:00 14.6 15 Oeste 23 Oeste 0 -- -- 79
2019-12-02 05:00:00 14.9 14 Oeste 23 Sudoeste 0 -- -- 77
2019-12-02 04:00:00 14.9 12 Oeste 25 Oeste 0 -- -- 76
2019-12-02 03:00:00 14.7 17 Oeste 23 Sudoeste 0 -- -- 78
2019-12-02 02:00:00 14.8 8 Oeste 15 Norte 0 -- -- 81
2019-12-02 01:00:00 14.3 8 Norte 17 Norte 0 -- -- 78
2019-12-02 00:00:00 14.2 9 Norte 14 Norte 0 -- -- 76
2019-12-01 23:00:00 14.7 8 Norte 14 Norte 0 -- -- 77
2019-12-01 22:00:00 15 7 Norte 18 Nordeste 0 -- -- 79
2019-12-01 21:00:00 15.3 13 Nordeste 21 Nordeste 0 -- -- 81
2019-12-01 20:00:00 16.2 13 Nordeste 31 Nordeste 0 -- -- 82
2019-12-01 19:00:00 16.8 17 Nordeste 33 Nordeste 0 -- -- 85
2019-12-01 18:00:00 17 23 Nordeste 38 Nordeste 0 -- -- 84
2019-12-01 17:00:00 17.6 23 Nordeste 40 Nordeste 0 -- -- 79
2019-12-01 16:00:00 18.6 18 Nordeste 34 Nordeste 0 -- -- 76
2019-12-01 15:00:00 19.4 21 Nordeste 35 Nordeste 0 -- -- 74
2019-12-01 14:00:00 19.9 21 Nordeste 53 Nordeste 0 -- -- 74
2019-12-01 13:00:00 20.2 20 Nordeste 37 Nordeste 0 -- -- 70
2019-12-01 12:00:00 19.9 22 Nordeste 38 Nordeste 0 -- -- 74
2019-12-01 11:00:00 19.3 23 Nordeste 35 Nordeste 0 -- -- 74
2019-12-01 10:00:00 18.2 20 Nordeste 33 Nordeste 0 -- -- 78
2019-12-01 09:00:00 16.6 20 Nordeste 33 Nordeste 0 -- -- 85
2019-12-01 08:00:00 14.6 12 Norte 27 Nordeste 0 -- -- 91
2019-12-01 07:00:00 14.8 16 Nordeste 32 Nordeste 0 -- -- 93
2019-12-01 06:00:00 14.5 15 Nordeste 28 Norte 0 -- -- 92
2019-12-01 05:00:00 14.2 11 Nordeste 22 Nordeste 0 -- -- 92
2019-12-01 04:00:00 14.5 9 Norte 22 Nordeste 0 -- -- 90
2019-12-01 03:00:00 14.9 13 Norte 23 Nordeste 0 -- -- 91
2019-12-01 02:00:00 15.8 17 Nordeste 24 Nordeste 0 -- -- 94
2019-12-01 01:00:00 16.1 12 Nordeste 24 Nordeste 0 -- -- 95
2019-12-01 00:00:00 15.8 14 Nordeste 24 Nordeste 0 -- -- 96
2019-11-30 23:00:00 15.4 5 Nordeste 10 Norte 0 -- -- 92
2019-11-30 22:00:00 15.7 4 Nordeste 8 Nordeste 0 -- -- 92
2019-11-30 21:00:00 16.3 2 Nordeste 6 Noroeste 0 -- -- 92
2019-11-30 20:00:00 17.2 0 Calma 7 Este 0 -- -- 91
2019-11-30 19:00:00 17.8 4 Nordeste 12 Nordeste 0 -- -- 91
2019-11-30 18:00:00 18.5 7 Nordeste 18 Nordeste 0 -- -- 90
2019-11-30 17:00:00 19.3 12 Nordeste 21 Nordeste 0 -- -- 86
2019-11-30 16:00:00 20.5 15 Nordeste 26 Este 0 -- -- 81
2019-11-30 15:00:00 22.6 13 Este 25 Nordeste 0 -- -- 73
2019-11-30 14:00:00 24 14 Este 24 Este 0 -- -- 65
2019-11-30 13:00:00 24.4 13 Nordeste 19 Nordeste 0 -- -- 58
2019-11-30 12:00:00 24.4 11 Nordeste 17 Este 0 -- -- 55
2019-11-30 11:00:00 24.9 6 Este 12 Este 0 -- -- 43
2019-11-30 10:00:00 23.3 3 Este 10 Este 0 -- -- 40
2019-11-30 09:00:00 21.8 2 Este 8 Noroeste 0 -- -- 29
2019-11-30 08:00:00 20.1 5 Noroeste 10 Noroeste 0 -- -- 29
2019-11-30 07:00:00 20.1 6 Noroeste 17 Nordeste 0 -- -- 28
2019-11-30 06:00:00 20.5 9 Norte 17 Nordeste 0 -- -- 29
2019-11-30 05:00:00 19.9 6 Norte 12 Norte 0 -- -- 30
2019-11-30 04:00:00 20.3 10 Norte 18 Noroeste 0 -- -- 29
2019-11-30 03:00:00 19.2 7 Noroeste 13 Noroeste 0 -- -- 36
2019-11-30 02:00:00 17.5 4 Norte 10 Norte 0 -- -- 54
2019-11-30 01:00:00 16.4 0 Calma 6 Sudeste 0 -- -- 79
2019-11-30 00:00:00 16.4 3 Sudeste 5 Sudoeste 0 -- -- 78
2019-11-29 23:00:00 17.1 2 Nordeste 5 Nordeste 0 -- -- 80
2019-11-29 22:00:00 17.9 2 Nordeste 8 Nordeste 0 -- -- 70
2019-11-29 21:00:00 20 4 Noroeste 17 Noroeste 0 -- -- 58
2019-11-29 20:00:00 19.5 5 Norte 9 Noroeste 0 -- -- 37
2019-11-29 19:00:00 18.4 5 Norte 8 Noroeste 0 -- -- 68
2019-11-29 18:00:00 20.3 3 Nordeste 9 Este 0 -- -- 81
2019-11-29 17:00:00 22.8 4 Nordeste 9 Este 0 -- -- 71
2019-11-29 16:00:00 25.1 6 Este 12 Este 0 -- -- 62
2019-11-29 15:00:00 25.7 5 Nordeste 13 Este 0 -- -- 54
2019-11-29 14:00:00 26.1 5 Este 16 Este 0 -- -- 55
2019-11-29 13:00:00 25.6 7 Nordeste 15 Este 0 -- -- 58
2019-11-29 12:00:00 25 6 Este 14 Este 0 -- -- 60
2019-11-29 11:00:00 23.6 7 Nordeste 17 Este 0 -- -- 62
2019-11-29 10:00:00 22.8 5 Nordeste 14 Este 0 -- -- 49
2019-11-29 09:00:00 19.3 6 Nordeste 9 Nordeste 0 -- -- 45
2019-11-29 08:00:00 16.8 0 Calma 14 Norte 0 -- -- 48
2019-11-29 07:00:00 17.2 7 Nordeste 15 Norte 0 -- -- 46
2019-11-29 06:00:00 17.4 8 Norte 16 Noroeste 0 -- -- 47
2019-11-29 05:00:00 17.6 4 Nordeste 22 Norte 0 -- -- 47
2019-11-29 04:00:00 17.1 8 Norte 15 Norte 0 -- -- 51
2019-11-29 03:00:00 15.8 4 Nordeste 17 Norte 0 -- -- 64
2019-11-29 02:00:00 15.7 4 Norte 10 Norte 0 -- -- 66
2019-11-29 01:00:00 16.3 7 Norte 17 Norte 0 -- -- 62
2019-11-29 00:00:00 16.2 7 Norte 13 Nordeste 0 -- -- 70
2019-11-28 23:00:00 15.6 5 Norte 12 Norte 0 -- -- 89
2019-11-28 22:00:00 15.5 4 Norte 10 Norte 0 -- -- 92
2019-11-28 21:00:00 15.6 5 Norte 10 Norte 0 -- -- 92
2019-11-28 20:00:00 15.8 4 Norte 8 Norte 0 -- -- 92
2019-11-28 19:00:00 16.2 8 Nordeste 14 Nordeste 0 -- -- 91
2019-11-28 18:00:00 17 10 Nordeste 18 Nordeste 0 -- -- 89
2019-11-28 17:00:00 17.8 9 Nordeste 23 Nordeste 0 -- -- 85
2019-11-28 16:00:00 18.2 16 Nordeste 22 Nordeste 0 -- -- 82
2019-11-28 15:00:00 19.4 13 Nordeste 20 Este 0 -- -- 76
2019-11-28 14:00:00 21.5 14 Este 20 Nordeste 0 -- -- 67
2019-11-28 13:00:00 21.2 14 Nordeste 22 Este 0 -- -- 67
2019-11-28 12:00:00 21 15 Nordeste 24 Este 0 -- -- 67
2019-11-28 11:00:00 19.3 14 Nordeste 24 Nordeste 0 -- -- 72
2019-11-28 10:00:00 17.4 14 Nordeste 28 Nordeste 0 -- -- 78
2019-11-28 09:00:00 15.6 10 Nordeste 23 Nordeste 0 -- -- 87
2019-11-28 08:00:00 14.4 13 Nordeste 20 Norte 0 -- -- 91
2019-11-28 07:00:00 14 10 Nordeste 18 Norte 0 -- -- 92
2019-11-28 06:00:00 14.1 8 Norte 18 Norte 0 -- -- 89
2019-11-28 05:00:00 14.2 8 Norte 20 Nordeste 0 -- -- 89
2019-11-28 04:00:00 14.6 11 Nordeste 22 Nordeste 0 -- -- 89
2019-11-28 03:00:00 14.3 9 Norte 18 Norte 0 -- -- 89
2019-11-28 02:00:00 14.9 10 Norte 18 Norte 0 -- -- 88
2019-11-28 01:00:00 14.7 13 Nordeste 19 Norte 0 -- -- 88
2019-11-28 00:00:00 15.1 11 Norte 18 Norte 0 -- -- 89
2019-11-27 23:00:00 15.3 10 Nordeste 19 Nordeste 0 -- -- 89
2019-11-27 22:00:00 16.1 11 Nordeste 19 Nordeste 0 -- -- 87
2019-11-27 21:00:00 16.1 8 Nordeste 21 Nordeste 0 -- -- 88
2019-11-27 20:00:00 16.3 13 Nordeste 23 Nordeste 0 -- -- 88
2019-11-27 19:00:00 16.7 13 Nordeste 23 Nordeste 0 -- -- 87
2019-11-27 18:00:00 16.9 15 Nordeste 23 Nordeste 0 -- -- 85
2019-11-27 17:00:00 18 14 Nordeste 27 Este 0 -- -- 80
2019-11-27 16:00:00 18.8 17 Nordeste 32 Nordeste 0 -- -- 75
2019-11-27 15:00:00 19.9 18 Nordeste 32 Este 0 -- -- 71
2019-11-27 14:00:00 20.5 19 Nordeste 31 Este 0 -- -- 69
2019-11-27 13:00:00 20.7 18 Nordeste 33 Este 0 -- -- 66
2019-11-27 05:00:00 -- -- -- -- -- -- -- -- --
2019-11-27 04:00:00 15.4 12 Norte 22 Norte 0 -- -- 83
2019-11-27 03:00:00 14.9 13 Norte 18 Norte 0 -- -- 88
2019-11-27 02:00:00 15.1 10 Norte 20 Norte 0 -- -- 86
2019-11-27 01:00:00 15.2 10 Norte 18 Nordeste 0 -- -- 88
2019-11-27 00:00:00 15.4 10 Norte 22 Nordeste 0 -- -- 88
2019-11-26 23:00:00 15.6 14 Nordeste 25 Nordeste 0 -- -- 87
2019-11-26 22:00:00 16.3 15 Nordeste 30 Nordeste 0 -- -- 86
2019-11-26 21:00:00 16.7 18 Nordeste 27 Nordeste 0 -- -- 87
2019-11-26 20:00:00 17 18 Nordeste 27 Nordeste 0 -- -- 87
2019-11-26 19:00:00 17 18 Nordeste 26 Nordeste 0 -- -- 86
2019-11-26 18:00:00 17.3 17 Nordeste 28 Nordeste 0 -- -- 84
2019-11-26 17:00:00 18.1 17 Nordeste 29 Este 0 -- -- 80
2019-11-26 16:00:00 18.3 17 Nordeste 27 Nordeste 0 -- -- 80
2019-11-26 15:00:00 18.8 17 Nordeste 28 Este 0 -- -- 78
2019-11-26 14:00:00 19.9 15 Nordeste 27 Este 0 -- -- 72
2019-11-26 13:00:00 20.5 17 Nordeste 28 Nordeste 0 -- -- 69
2019-11-26 12:00:00 20.7 17 Nordeste 30 Este 0 -- -- 67
2019-11-26 11:00:00 20 20 Nordeste 30 Nordeste 0 -- -- 71
2019-11-26 10:00:00 19.1 15 Nordeste 28 Nordeste 0 -- -- 71
2019-11-26 09:00:00 17.4 16 Nordeste 27 Nordeste 0 -- -- 76
2019-11-26 08:00:00 15.3 13 Norte 24 Norte 0 -- -- 82
2019-11-26 07:00:00 14.9 14 Norte 24 Norte 0 -- -- 85
2019-11-26 06:00:00 14.6 9 Norte 19 Norte 0 -- -- 86
2019-11-26 05:00:00 14.5 8 Norte 20 Norte 0 -- -- 86
2019-11-26 04:00:00 14.6 12 Norte 20 Nordeste 0 -- -- 85
2019-11-26 03:00:00 14.6 10 Norte 19 Nordeste 0 -- -- 83
2019-11-26 02:00:00 14.7 12 Norte 21 Nordeste 0 -- -- 84
2019-11-26 01:00:00 14.8 11 Norte 20 Nordeste 0 -- -- 85
2019-11-26 00:00:00 15.1 9 Norte 21 Nordeste 0 -- -- 82
2019-11-25 23:00:00 15.5 8 Norte 23 Nordeste 0 -- -- 84
2019-11-25 22:00:00 16.4 17 Nordeste 32 Nordeste 0 -- -- 83
2019-11-25 21:00:00 16.6 19 Nordeste 32 Nordeste 0 -- -- 85
2019-11-25 20:00:00 16.8 19 Nordeste 28 Nordeste 0 -- -- 85
2019-11-25 19:00:00 16.9 18 Nordeste 32 Nordeste 0 -- -- 84
2019-11-25 18:00:00 17.1 15 Nordeste 27 Nordeste 0 -- -- 80
2019-11-25 17:00:00 17.6 13 Nordeste 31 Nordeste 0 -- -- 79
2019-11-25 16:00:00 17.7 18 Nordeste 30 Nordeste 0 -- -- 73
2019-11-25 15:00:00 18.2 18 Nordeste 30 Nordeste 0 -- -- 72
2019-11-25 14:00:00 19.3 17 Nordeste 31 Este 0 -- -- 67
2019-11-25 13:00:00 20.9 17 Nordeste 32 Este 0 -- -- 59
2019-11-25 12:00:00 20.4 18 Nordeste 31 Este 0 -- -- 59
2019-11-25 11:00:00 19.2 18 Nordeste 27 Este 0 -- -- 64
2019-11-25 10:00:00 18.6 15 Nordeste 30 Nordeste 0 -- -- 63
2019-11-25 09:00:00 16.7 18 Nordeste 28 Nordeste 0 -- -- 71
2019-11-25 08:00:00 14.8 11 Norte 18 Nordeste 0 -- -- 76
2019-11-25 07:00:00 14.6 11 Norte 24 Norte 0 -- -- 76
2019-11-25 06:00:00 14.4 14 Norte 21 Norte 0 -- -- 74
2019-11-25 05:00:00 14.6 14 Norte 26 Norte 0 -- -- 75
2019-11-25 04:00:00 14.8 12 Norte 22 Norte 0 -- -- 75
2019-11-25 03:00:00 14.9 13 Norte 24 Norte 0 -- -- 75
2019-11-25 02:00:00 15 13 Norte 31 Norte 0 -- -- 75
2019-11-25 01:00:00 14.8 14 Norte 27 Norte 0 -- -- 76
2019-11-25 00:00:00 15 15 Nordeste 27 Norte 0 -- -- 77
2019-11-24 23:00:00 15.5 16 Nordeste 31 Nordeste 0 -- -- 78
2019-11-24 22:00:00 15.6 16 Nordeste 24 Nordeste 0 -- -- 79
2019-11-24 21:00:00 15.9 14 Nordeste 25 Nordeste 0 -- -- 79
2019-11-24 20:00:00 16.4 7 Nordeste 24 Nordeste 0 -- -- 79
2019-11-24 19:00:00 16.9 16 Nordeste 33 Nordeste 0 -- -- 83
2019-11-24 18:00:00 17.3 19 Nordeste 33 Nordeste 0 -- -- 85
2019-11-24 17:00:00 17.5 19 Nordeste 34 Nordeste 0 -- -- 83
2019-11-24 16:00:00 18 22 Nordeste 31 Nordeste 0 -- -- 80
2019-11-24 15:00:00 18 16 Nordeste 27 Nordeste 0 -- -- 80
2019-11-24 14:00:00 17.8 14 Nordeste 25 Este 0 -- -- 87
2019-11-24 13:00:00 19 15 Nordeste 28 Nordeste 0 -- -- 82
2019-11-24 12:00:00 19.2 19 Nordeste 35 Nordeste 0 -- -- 81
2019-11-24 11:00:00 18.7 15 Nordeste 26 Nordeste 0 -- -- 81
2019-11-24 10:00:00 19.5 15 Este 23 Este 0 -- -- 79
2019-11-24 09:00:00 18.6 9 Nordeste 14 Nordeste 0 -- -- 71
2019-11-24 08:00:00 15.6 9 Noroeste 14 Noroeste 0 -- -- 76
2019-11-24 07:00:00 15.2 6 Noroeste 12 Oeste 0 -- -- 80
2019-11-24 06:00:00 15.7 10 Oeste 17 Oeste 0 -- -- 76
2019-11-24 05:00:00 15.8 6 Noroeste 16 Noroeste 0 -- -- 76
2019-11-24 04:00:00 15.9 9 Oeste 18 Noroeste 0 -- -- 74
2019-11-24 03:00:00 15.8 13 Noroeste 17 Noroeste 0 -- -- 77
2019-11-24 02:00:00 16.4 11 Oeste 17 Oeste 0 -- -- 80
2019-11-24 01:00:00 16 10 Noroeste 14 Oeste 0 -- -- 76
2019-11-24 00:00:00 15.9 10 Noroeste 14 Noroeste 0 -- -- 79
2019-11-23 23:00:00 15.9 6 Norte 13 Norte 0 -- -- 78
2019-11-23 22:00:00 16.2 6 Noroeste 12 Noroeste 0 -- -- 81
2019-11-23 21:00:00 17 6 Noroeste 13 Norte 0 -- -- 81
2019-11-23 20:00:00 17.7 7 Oeste 10 Oeste 0 -- -- 86
2019-11-23 19:00:00 18.7 6 Sudeste 13 Sudeste 0 -- -- 85
2019-11-23 18:00:00 19.6 3 Sur 8 Sur 0 -- -- 76
2019-11-23 17:00:00 20.5 5 Nordeste 13 Sur 0 -- -- 72
2019-11-23 16:00:00 20.7 9 Sur 16 Sur 0 -- -- 72
2019-11-23 15:00:00 21.5 9 Sudoeste 20 Sur 0 -- -- 71
2019-11-23 14:00:00 21 11 Sudeste 18 Sudeste 0 -- -- 71
2019-11-23 13:00:00 21.5 5 Sudeste 20 Este 0 -- -- 68
2019-11-23 12:00:00 22.9 12 Sur 21 Sudeste 0 -- -- 65
2019-11-23 11:00:00 22.8 9 Sudeste 16 Sudeste 0 -- -- 65
2019-11-23 10:00:00 20.9 9 Sur 17 Sudoeste 0 -- -- 71
2019-11-23 09:00:00 18.2 10 Sudoeste 15 Sudoeste 0 -- -- 80
2019-11-23 08:00:00 16.4 9 Oeste 19 Oeste 0 -- -- 82
2019-11-23 07:00:00 15.8 14 Oeste 19 Oeste 0 -- -- 82
2019-11-23 06:00:00 15.6 10 Oeste 13 Oeste 0 -- -- 81
2019-11-23 05:00:00 15.7 10 Oeste 13 Oeste 0 -- -- 80
2019-11-23 04:00:00 15.7 8 Noroeste 16 Noroeste 0 -- -- 77
2019-11-23 03:00:00 15.8 11 Noroeste 16 Noroeste 0 -- -- 77
2019-11-23 02:00:00 15.9 6 Noroeste 12 Noroeste 0 -- -- 80
2019-11-23 01:00:00 16 9 Noroeste 14 Noroeste 0 -- -- 80
2019-11-23 00:00:00 16 8 Noroeste 12 Noroeste 0 -- -- 81
2019-11-22 23:00:00 16.2 2 Noroeste 12 Noroeste 0 -- -- 82
2019-11-22 22:00:00 16.5 0 Calma 9 Noroeste 0 -- -- 87
2019-11-22 21:00:00 16.2 5 Noroeste 10 Noroeste 0 -- -- 86
2019-11-22 20:00:00 17.3 3 Sudoeste 15 Sur 0 -- -- 87
2019-11-22 19:00:00 18 9 Sur 20 Sudoeste 0 -- -- 86
2019-11-22 18:00:00 18.5 12 Sur 21 Sur 0 -- -- 85
2019-11-22 17:00:00 19.4 12 Sudoeste 23 Sudoeste 0 -- -- 81
2019-11-22 16:00:00 20.4 15 Sur 25 Sudoeste 0 -- -- 74
2019-11-22 15:00:00 21.5 14 Sur 25 Sur 0 -- -- 72
2019-11-22 14:00:00 22.8 15 Sur 27 Sudoeste 0 -- -- 66
2019-11-22 13:00:00 22.4 16 Sur 30 Sur 0 -- -- 71
2019-11-22 12:00:00 22.5 15 Sur 22 Sur 0 -- -- 67
2019-11-22 11:00:00 21.7 14 Sur 23 Sur 0 -- -- 71
2019-11-22 10:00:00 20.4 9 Sur 13 Sur 0 -- -- 74
2019-11-22 09:00:00 17.8 0 Calma 5 Norte 0 -- -- 83
2019-11-22 08:00:00 15.3 4 Noroeste 12 Noroeste 0 -- -- 81
2019-11-22 07:00:00 15.4 7 Noroeste 10 Norte 0 -- -- 76
2019-11-22 06:00:00 15.5 7 Noroeste 14 Norte 0 -- -- 74
2019-11-22 05:00:00 16.2 9 Norte 14 Norte 0 -- -- 72
2019-11-22 04:00:00 15.4 9 Noroeste 12 Noroeste 0 -- -- 74
2019-11-22 03:00:00 15.7 7 Noroeste 10 Noroeste 0 -- -- 73
2019-11-22 02:00:00 16.1 7 Noroeste 11 Noroeste 0 -- -- 71
2019-11-22 01:00:00 16.1 8 Noroeste 13 Noroeste 0 -- -- 70
2019-11-22 00:00:00 16.3 7 Noroeste 13 Noroeste 0 -- -- 72
2019-11-21 23:00:00 16.1 6 Noroeste 11 Noroeste 0 -- -- 74
2019-11-21 22:00:00 16.3 6 Noroeste 10 Oeste 0 -- -- 74
2019-11-21 21:00:00 16.5 6 Noroeste 11 Oeste 0 -- -- 73
2019-11-21 20:00:00 16.8 8 Noroeste 11 Oeste 0 -- -- 74
2019-11-21 19:00:00 17.1 8 Noroeste 10 Noroeste 0 -- -- 72
2019-11-21 18:00:00 18.8 3 Este 11 Nordeste 0 -- -- 65
2019-11-21 17:00:00 20.3 6 Este 16 Nordeste 0 -- -- 63
2019-11-21 16:00:00 20 12 Nordeste 19 Sudeste 0 -- -- 64
2019-11-21 15:00:00 21.2 6 Este 14 Este 0 -- -- 64
2019-11-21 14:00:00 19.5 7 Este 20 Este 0 -- -- 70
2019-11-21 13:00:00 20.2 10 Este 20 Este 0 -- -- 73
2019-11-21 12:00:00 20.1 10 Este 20 Este 0 -- -- 72
2019-11-21 11:00:00 21.5 10 Este 18 Este 0 -- -- 64
2019-11-21 10:00:00 18.6 8 Este 11 Este 0 -- -- 78
2019-11-21 09:00:00 17.9 5 Nordeste 10 Noroeste 0 -- -- 77
2019-11-21 08:00:00 15.1 8 Noroeste 12 Noroeste 0 -- -- 76
2019-11-21 07:00:00 -- -- -- -- -- -- -- -- --
2019-11-21 06:00:00 -- -- -- -- -- -- -- -- --
2019-11-21 05:00:00 -- -- -- -- -- -- -- -- --
2019-11-21 04:00:00 -- -- -- -- -- -- -- -- --
2019-11-21 03:00:00 -- -- -- -- -- -- -- -- --
2019-11-21 02:00:00 -- -- -- -- -- -- -- -- --
2019-11-21 01:00:00 -- -- -- -- -- -- -- -- --
2019-11-21 00:00:00 -- -- -- -- -- -- -- -- --
2019-11-20 23:00:00 -- -- -- -- -- -- -- -- --
2019-11-20 22:00:00 -- -- -- -- -- -- -- -- --
2019-11-20 21:00:00 -- -- -- -- -- -- -- -- --
2019-11-20 20:00:00 -- -- -- -- -- -- -- -- --
2019-11-20 19:00:00 -- -- -- -- -- -- -- -- --
2019-11-20 18:00:00 18.4 8 Este 11 Nordeste 0 -- -- 73
2019-11-20 17:00:00 19.7 6 Este 13 Este 0 -- -- 66
2019-11-20 16:00:00 21.6 8 Sudeste 19 Sudeste 0 -- -- 60
2019-11-20 15:00:00 21.6 8 Sur 17 Sur 0 -- -- 62
2019-11-20 14:00:00 22 9 Sudeste 20 Sudeste 0 -- -- 60
2019-11-20 13:00:00 22.1 11 Sudeste 22 Sudeste 0 -- -- 64
2019-11-20 12:00:00 21.4 9 Sudeste 18 Este 0 -- -- 59
2019-11-20 11:00:00 21 8 Sudeste 15 Sudeste 0 -- -- 65
2019-11-20 10:00:00 19.4 5 Sudeste 11 Sudeste 0 -- -- 67
2019-11-20 09:00:00 16.5 3 Sur 10 Noroeste 0 -- -- 79
2019-11-20 08:00:00 14.1 6 Noroeste 17 Noroeste 0 -- -- 68
2019-11-20 07:00:00 13.7 9 Noroeste 12 Noroeste 0 -- -- 66
2019-11-20 06:00:00 13.8 8 Noroeste 15 Noroeste 0 -- -- 65
2019-11-20 05:00:00 13.9 11 Noroeste 15 Noroeste 0 -- -- 65
2019-11-20 04:00:00 14.1 13 Noroeste 17 Noroeste 0 -- -- 74
2019-11-20 03:00:00 14.1 11 Noroeste 15 Oeste 0 -- -- 73
2019-11-20 02:00:00 14.7 13 Oeste 19 Oeste 0 -- -- 79
2019-11-20 01:00:00 14.7 15 Oeste 19 Oeste 0 -- -- 74
2019-11-20 00:00:00 14.6 11 Oeste 15 Oeste 0 -- -- 74
2019-11-19 23:00:00 14.7 12 Oeste 14 Oeste 0 -- -- 73
2019-11-19 22:00:00 14.7 8 Noroeste 12 Oeste 0 -- -- 73
2019-11-19 21:00:00 14.9 8 Oeste 14 Oeste 0 -- -- 80
2019-11-19 20:00:00 15.4 9 Oeste 12 Noroeste 0 -- -- 78
2019-11-19 19:00:00 16.3 6 Sudoeste 12 Sudoeste 0 -- -- 76
2019-11-19 18:00:00 17.2 9 Sur 15 Sudeste 0 -- -- 72
2019-11-19 17:00:00 18.4 8 Sudeste 16 Sudeste 0 -- -- 68
2019-11-19 16:00:00 19.2 9 Sudeste 19 Sudeste 0 -- -- 64
2019-11-19 15:00:00 20.6 9 Sudeste 21 Sudeste 0 -- -- 58
2019-11-19 14:00:00 21.8 11 Sudeste 22 Sur 0 -- -- 53
2019-11-19 13:00:00 23.1 12 Sudeste 20 Sudeste 0 -- -- 48
2019-11-19 12:00:00 22.4 9 Sudeste 20 Sudeste 0 -- -- 48
2019-11-19 11:00:00 21.5 7 Sudeste 17 Sudeste 0 -- -- 51
2019-11-19 10:00:00 20.4 9 Este 15 Este 0 -- -- 54
2019-11-19 09:00:00 17.5 0 Calma 12 Noroeste 0 -- -- 59
2019-11-19 08:00:00 14.9 13 Noroeste 18 Noroeste 0 -- -- 62
2019-11-19 07:00:00 14.3 13 Noroeste 19 Noroeste 0 -- -- 65
2019-11-19 06:00:00 14.2 12 Noroeste 17 Noroeste 0 -- -- 66
2019-11-19 05:00:00 14.2 10 Noroeste 15 Noroeste 0 -- -- 67
2019-11-19 04:00:00 14.1 9 Noroeste 17 Oeste 0 -- -- 66
2019-11-19 03:00:00 14 14 Oeste 22 Oeste 0 -- -- 69
2019-11-19 02:00:00 14.3 15 Oeste 24 Oeste 0 -- -- 74
2019-11-19 01:00:00 14.2 10 Oeste 18 Oeste 0 -- -- 75
2019-11-19 00:00:00 14.1 10 Noroeste 18 Noroeste 0 -- -- 73
2019-11-18 23:00:00 14.1 7 Noroeste 16 Noroeste 0 -- -- 73
2019-11-18 22:00:00 14.1 9 Noroeste 16 Norte 0 -- -- 72
2019-11-18 21:00:00 14.1 8 Norte 18 Oeste 0 -- -- 74
2019-11-18 20:00:00 15 7 Nordeste 20 Nordeste 0 -- -- 81
2019-11-18 19:00:00 15.9 10 Nordeste 24 Nordeste 0 -- -- 86
2019-11-18 18:00:00 15.9 15 Nordeste 23 Nordeste 0 -- -- 85
2019-11-18 17:00:00 15.7 14 Nordeste 34 Nordeste 0 -- -- 84
2019-11-18 16:00:00 15.8 15 Nordeste 27 Nordeste 1 -- -- 91
2019-11-18 15:00:00 16.6 16 Nordeste 33 Nordeste 0 -- -- 83
2019-11-18 14:00:00 17.8 19 Nordeste 36 Nordeste 0 -- -- 69
2019-11-18 13:00:00 18.4 25 Nordeste 45 Nordeste 0 -- -- 67
2019-11-18 12:00:00 19.9 27 Nordeste 45 Nordeste 0 -- -- 58
2019-11-18 11:00:00 19.5 24 Nordeste 42 Nordeste 0 -- -- 60
2019-11-18 10:00:00 18.5 24 Nordeste 42 Nordeste 0 -- -- 65
2019-11-18 09:00:00 16.6 23 Nordeste 39 Nordeste 0 -- -- 71
2019-11-18 08:00:00 14.9 16 Nordeste 32 Nordeste 0 -- -- 70
2019-11-18 07:00:00 15 21 Nordeste 38 Nordeste 0 -- -- 64
2019-11-18 06:00:00 14.7 22 Nordeste 43 Nordeste 0 -- -- 68
2019-11-18 05:00:00 14.4 17 Nordeste 30 Nordeste 0 -- -- 76
2019-11-18 04:00:00 14.9 22 Nordeste 42 Nordeste 0 -- -- 72
2019-11-18 03:00:00 14.9 24 Nordeste 39 Nordeste 0 -- -- 73
2019-11-18 02:00:00 15.2 19 Nordeste 47 Nordeste 0 -- -- 65
2019-11-18 01:00:00 15.3 26 Nordeste 43 Nordeste 0 -- -- 65
2019-11-18 00:00:00 15.2 27 Nordeste 46 Nordeste 0 -- -- 69
2019-11-17 23:00:00 15.1 18 Nordeste 42 Nordeste 0 -- -- 64
2019-11-17 22:00:00 15.2 23 Nordeste 44 Nordeste 0 -- -- 65
2019-11-17 21:00:00 15.4 24 Nordeste 50 Nordeste 0 -- -- 65
2019-11-17 20:00:00 15.1 25 Nordeste 41 Nordeste 0 -- -- 80
2019-11-17 19:00:00 15.3 22 Nordeste 46 Nordeste 0 -- -- 73
2019-11-17 18:00:00 15.8 19 Nordeste 40 Nordeste 0 -- -- 71
2019-11-17 17:00:00 16.2 26 Nordeste 43 Nordeste 0 -- -- 67
2019-11-17 16:00:00 16.2 23 Nordeste 45 Nordeste 0 -- -- 71
2019-11-17 15:00:00 16 28 Nordeste 50 Nordeste 0 -- -- 73
2019-11-17 14:00:00 16.9 28 Nordeste 46 Nordeste 0 -- -- 67
2019-11-17 13:00:00 17.5 30 Nordeste 48 Nordeste 0 -- -- 61
2019-11-17 12:00:00 16.8 28 Nordeste 49 Nordeste 0 -- -- 69
2019-11-17 11:00:00 17.2 28 Nordeste 49 Nordeste 0 -- -- 66
2019-11-17 10:00:00 16.3 25 Nordeste 40 Nordeste 0 -- -- 75
2019-11-17 09:00:00 15 21 Nordeste 33 Nordeste 0 -- -- 83
2019-11-17 08:00:00 13.8 21 Nordeste 35 Nordeste 0 -- -- 94
2019-11-17 07:00:00 14.1 17 Nordeste 29 Nordeste 0 -- -- 90
2019-11-17 06:00:00 13.8 13 Norte 26 Nordeste 0 -- -- 84
2019-11-17 05:00:00 13.7 16 Nordeste 27 Norte 0 -- -- 85
2019-11-17 04:00:00 14.1 10 Nordeste 30 Nordeste 0 -- -- 79
2019-11-17 03:00:00 14.3 10 Norte 32 Nordeste 0 -- -- 85
2019-11-17 02:00:00 15 11 Nordeste 29 Nordeste 0 -- -- 75
2019-11-17 01:00:00 14.9 11 Norte 32 Nordeste 0 -- -- 72
2019-11-17 00:00:00 15 18 Nordeste 42 Nordeste 0 -- -- 72
2019-11-16 23:00:00 15.3 17 Nordeste 39 Nordeste 0 -- -- 71
2019-11-16 22:00:00 15.8 24 Nordeste 46 Nordeste 0 -- -- 68
2019-11-16 21:00:00 15.4 21 Nordeste 37 Nordeste 0 -- -- 69
2019-11-16 20:00:00 15.6 19 Nordeste 42 Nordeste 0 -- -- 74
2019-11-16 19:00:00 15.8 28 Nordeste 45 Nordeste 0 -- -- 74
2019-11-16 18:00:00 16.5 27 Nordeste 53 Nordeste 0 -- -- 66
2019-11-16 17:00:00 17.9 33 Nordeste 56 Nordeste 0 -- -- 57
2019-11-16 16:00:00 18.6 29 Nordeste 55 Nordeste 0 -- -- 57
2019-11-16 15:00:00 19 33 Nordeste 63 Nordeste 0 -- -- 63
2019-11-16 14:00:00 19.9 33 Nordeste 60 Nordeste 0 -- -- 54
2019-11-16 13:00:00 20.6 31 Nordeste 66 Nordeste 0 -- -- 48
2019-11-16 12:00:00 19.7 35 Nordeste 62 Nordeste 0 -- -- 51
2019-11-16 11:00:00 19.2 33 Nordeste 51 Nordeste 0 -- -- 54
2019-11-16 10:00:00 17.4 25 Nordeste 36 Nordeste 0 -- -- 53
2019-11-16 09:00:00 17.3 10 Nordeste 19 Nordeste 0 -- -- 61
2019-11-16 08:00:00 14.6 8 Noroeste 15 Noroeste 0 -- -- 75
2019-11-16 07:00:00 13.4 6 Sudoeste 11 Sudoeste 0 -- -- 83
2019-11-16 06:00:00 13.1 8 Noroeste 21 Este 0 -- -- 79
2019-11-16 05:00:00 13.5 12 Oeste 29 Nordeste 0 -- -- 75
2019-11-16 04:00:00 13.9 4 Nordeste 21 Norte 0 -- -- 72
2019-11-16 03:00:00 13.3 6 Noroeste 23 Nordeste 0 -- -- 78
2019-11-16 02:00:00 13.9 3 Nordeste 35 Nordeste 0 -- -- 88
2019-11-16 01:00:00 14 5 Norte 26 Norte 0 -- -- 69
2019-11-16 00:00:00 14.3 12 Norte 26 Norte 0 -- -- 71
2019-11-15 23:00:00 14.3 15 Nordeste 42 Nordeste 0 -- -- 83
2019-11-15 22:00:00 15.1 12 Nordeste 30 Nordeste 0 -- -- 67
2019-11-15 21:00:00 15.5 17 Nordeste 37 Nordeste 0 -- -- 65
2019-11-15 20:00:00 15.7 18 Nordeste 43 Nordeste 0 -- -- 69
2019-11-15 19:00:00 15.9 27 Nordeste 44 Nordeste 0 -- -- 66
2019-11-15 18:00:00 16.3 23 Nordeste 49 Nordeste 0 -- -- 60
2019-11-15 17:00:00 17.3 29 Nordeste 52 Nordeste 0 -- -- 63
2019-11-15 16:00:00 17.9 32 Nordeste 54 Nordeste 0 -- -- 61
2019-11-15 15:00:00 18.9 29 Nordeste 53 Nordeste 0 -- -- 67
2019-11-15 14:00:00 17.8 23 Nordeste 53 Nordeste 0 -- -- 78
2019-11-15 13:00:00 19.8 28 Nordeste 53 Nordeste 0 -- -- 66
2019-11-15 12:00:00 19.2 31 Nordeste 52 Nordeste 0 -- -- 73
2019-11-15 11:00:00 19.4 21 Nordeste 40 Este 0 -- -- 67
2019-11-15 10:00:00 19.4 17 Nordeste 39 Este 0 -- -- 69
2019-11-15 09:00:00 17.9 9 Este 18 Oeste 0 -- -- 73
2019-11-15 08:00:00 15.2 6 Oeste 20 Noroeste 0 -- -- 69
2019-11-15 07:00:00 15.2 14 Oeste 25 Oeste 0 -- -- 83
2019-11-15 06:00:00 15.9 14 Oeste 30 Oeste 0 -- -- 67
2019-11-15 05:00:00 16 8 Norte 33 Norte 0 -- -- 64
2019-11-15 04:00:00 16.6 22 Norte 41 Nordeste 0 -- -- 60
2019-11-15 03:00:00 16.3 22 Nordeste 48 Nordeste 0 -- -- 65
2019-11-15 02:00:00 16.7 30 Nordeste 51 Nordeste 0 -- -- 73
2019-11-15 01:00:00 16.6 28 Nordeste 51 Nordeste 0 -- -- 67
2019-11-15 00:00:00 16.6 25 Nordeste 59 Nordeste 0 -- -- 76
2019-11-14 23:00:00 16.9 36 Nordeste 58 Nordeste 0 -- -- 68
2019-11-14 22:00:00 16.5 23 Nordeste 41 Nordeste 0 -- -- 70
2019-11-14 21:00:00 16.6 25 Nordeste 44 Nordeste 0 -- -- 81
2019-11-14 20:00:00 16.5 23 Nordeste 44 Nordeste 0 -- -- 80
2019-11-14 19:00:00 17.1 25 Nordeste 44 Nordeste 0 -- -- 84
2019-11-14 18:00:00 17.4 26 Nordeste 46 Nordeste 0 -- -- 79
2019-11-14 17:00:00 18.1 26 Nordeste 42 Nordeste 0 -- -- 75
2019-11-14 16:00:00 18.5 25 Nordeste 46 Nordeste 0 -- -- 72
2019-11-14 15:00:00 20 28 Nordeste 43 Nordeste 0 -- -- 65
2019-11-14 14:00:00 20 26 Nordeste 50 Nordeste 0 -- -- 64
2019-11-14 13:00:00 19.6 29 Nordeste 53 Nordeste 0 -- -- 72
2019-11-14 12:00:00 20.8 25 Nordeste 50 Nordeste 0 -- -- 63
2019-11-14 11:00:00 19.2 27 Nordeste 48 Nordeste 0 -- -- 67
2019-11-14 10:00:00 19.5 30 Nordeste 46 Nordeste 0 -- -- 69
2019-11-14 09:00:00 17.7 25 Nordeste 39 Nordeste 0 -- -- 76
2019-11-14 08:00:00 17.5 27 Nordeste 49 Nordeste 0 -- -- 69
2019-11-14 07:00:00 17.1 15 Nordeste 33 Nordeste 0 -- -- 76
2019-11-14 06:00:00 17 23 Nordeste 54 Nordeste 0 -- -- 65
2019-11-14 05:00:00 16.9 22 Nordeste 49 Nordeste 0 -- -- 67
2019-11-14 04:00:00 16.7 22 Nordeste 40 Nordeste 0 -- -- 67
2019-11-14 03:00:00 16.5 21 Nordeste 43 Nordeste 0 -- -- 70
2019-11-14 02:00:00 16.7 19 Nordeste 46 Nordeste 0 -- -- 70
2019-11-14 01:00:00 16.5 19 Nordeste 47 Nordeste 0 -- -- 70
2019-11-14 00:00:00 16.8 24 Nordeste 40 Nordeste 0 -- -- 68
2019-11-13 23:00:00 16.7 22 Nordeste 41 Nordeste 0 -- -- 74
2019-11-13 22:00:00 16.8 22 Nordeste 41 Nordeste 0 -- -- 71
2019-11-13 21:00:00 17.1 22 Nordeste 45 Nordeste 0 -- -- 72
2019-11-13 20:00:00 17 20 Nordeste 48 Nordeste 0 -- -- 70
2019-11-13 19:00:00 17.4 26 Nordeste 48 Nordeste 0 -- -- 65
2019-11-13 18:00:00 17.9 27 Nordeste 48 Nordeste 0 -- -- 65
2019-11-13 17:00:00 19.1 29 Nordeste 55 Nordeste 0 -- -- 60
2019-11-13 16:00:00 20.5 32 Nordeste 55 Nordeste 0 -- -- 56
2019-11-13 15:00:00 21.2 28 Nordeste 55 Nordeste 0 -- -- 60
2019-11-13 14:00:00 21.2 28 Nordeste 56 Nordeste 0 -- -- 63
2019-11-13 13:00:00 21.3 34 Nordeste 63 Este 0 -- -- 63
2019-11-13 12:00:00 20.6 35 Nordeste 60 Nordeste 0 -- -- 65
2019-11-13 11:00:00 20.4 40 Nordeste 63 Nordeste 0 -- -- 62
2019-11-13 10:00:00 19.8 37 Nordeste 63 Nordeste 0 -- -- 60
2019-11-13 09:00:00 18.2 33 Nordeste 52 Nordeste 0 -- -- 67
2019-11-13 08:00:00 17.2 28 Nordeste 48 Nordeste 0 -- -- 70
2019-11-13 07:00:00 17.2 30 Nordeste 49 Nordeste 0 -- -- 68
2019-11-13 06:00:00 17.6 25 Nordeste 44 Nordeste 0 -- -- 61
2019-11-13 05:00:00 19 30 Nordeste 49 Nordeste 0 -- -- 50
2019-11-13 04:00:00 19.6 30 Nordeste 53 Nordeste 0 -- -- 48
2019-11-13 03:00:00 20.4 29 Nordeste 44 Nordeste 0 -- -- 43
2019-11-13 02:00:00 21.1 31 Nordeste 56 Nordeste 0 -- -- 40
2019-11-13 01:00:00 21.9 33 Nordeste 58 Nordeste 0 -- -- 36
2019-11-13 00:00:00 19.7 23 Nordeste 46 Nordeste 0 -- -- 42
2019-11-12 23:00:00 19.1 27 Nordeste 44 Nordeste 0 -- -- 43
2019-11-12 22:00:00 18.2 26 Nordeste 40 Nordeste 0 -- -- 56
2019-11-12 21:00:00 18.5 28 Nordeste 47 Nordeste 0 -- -- 57
2019-11-12 20:00:00 18 25 Nordeste 41 Nordeste 0 -- -- 68
2019-11-12 19:00:00 18.5 22 Nordeste 39 Nordeste 0 -- -- 69
2019-11-12 18:00:00 18.6 23 Nordeste 43 Nordeste 0 -- -- 81
2019-11-12 17:00:00 20 26 Nordeste 57 Nordeste 0 -- -- 77
2019-11-12 16:00:00 21 33 Nordeste 59 Nordeste 0 -- -- 69
2019-11-12 15:00:00 21.7 40 Nordeste 66 Nordeste 0 -- -- 62
2019-11-12 14:00:00 21.4 40 Nordeste 69 Nordeste 0 -- -- 66
2019-11-12 13:00:00 21.9 40 Nordeste 64 Nordeste 0 -- -- 63
2019-11-12 12:00:00 21.7 36 Nordeste 71 Este 0 -- -- 64
2019-11-12 11:00:00 21.4 30 Nordeste 57 Nordeste 0 -- -- 70
2019-11-12 10:00:00 20.3 32 Nordeste 55 Nordeste 0 -- -- 72
2019-11-12 09:00:00 19.4 30 Nordeste 52 Nordeste 0 -- -- 71
2019-11-12 08:00:00 17.6 23 Nordeste 42 Nordeste 0 -- -- 76
2019-11-12 07:00:00 16.9 24 Nordeste 46 Nordeste 0 -- -- 76
2019-11-12 06:00:00 17 23 Nordeste 43 Nordeste 0 -- -- 78
2019-11-12 05:00:00 16.2 7 Norte 41 Nordeste 0 -- -- 78
2019-11-12 04:00:00 16.5 10 Nordeste 46 Nordeste 0 -- -- 75
2019-11-12 03:00:00 17.1 24 Nordeste 44 Este 0 -- -- 74
2019-11-12 02:00:00 17.4 25 Nordeste 49 Nordeste 0 -- -- 77
2019-11-12 01:00:00 17.4 22 Nordeste 44 Nordeste 0 -- -- 73
2019-11-12 00:00:00 17.3 20 Nordeste 45 Nordeste 0 -- -- 77
2019-11-11 23:00:00 17.8 31 Nordeste 49 Nordeste 0 -- -- 73
2019-11-11 22:00:00 17.7 23 Nordeste 48 Nordeste 0 -- -- 74
2019-11-11 21:00:00 17.5 24 Nordeste 46 Nordeste 0 -- -- 74
2019-11-11 20:00:00 17.6 30 Nordeste 51 Nordeste 0 -- -- 75
2019-11-11 19:00:00 17.6 32 Nordeste 51 Nordeste 0 -- -- 76
2019-11-11 18:00:00 18.4 35 Nordeste 57 Nordeste 0 -- -- 71
2019-11-11 17:00:00 19.2 35 Nordeste 66 Nordeste 0 -- -- 70
2019-11-11 16:00:00 20.3 44 Nordeste 64 Nordeste 0 -- -- 64
2019-11-11 15:00:00 21.2 34 Nordeste 58 Nordeste 0 -- -- 62
2019-11-11 14:00:00 20.9 37 Nordeste 64 Nordeste 0 -- -- 64
2019-11-11 13:00:00 20.9 40 Nordeste 62 Nordeste 0 -- -- 62
2019-11-11 12:00:00 21.3 35 Nordeste 57 Este 0 -- -- 64
2019-11-11 11:00:00 21.3 38 Nordeste 58 Nordeste 0 -- -- 57
2019-11-11 10:00:00 20.2 39 Nordeste 72 Nordeste 0 -- -- 58
2019-11-11 09:00:00 18.8 37 Nordeste 60 Nordeste 0 -- -- 62
2019-11-11 08:00:00 17.3 29 Nordeste 49 Nordeste 0 -- -- 59
2019-11-11 07:00:00 16.7 29 Nordeste 53 Nordeste 0 -- -- 67
2019-11-11 06:00:00 16.9 35 Nordeste 58 Nordeste 0 -- -- 64
2019-11-11 05:00:00 16.7 30 Nordeste 62 Nordeste 0 -- -- 66
2019-11-11 04:00:00 16.4 24 Nordeste 52 Nordeste 0 -- -- 78
2019-11-11 03:00:00 16.8 25 Nordeste 51 Nordeste 0 -- -- 68
2019-11-11 02:00:00 16.6 30 Nordeste 56 Nordeste 0 -- -- 68
2019-11-11 01:00:00 16.9 28 Nordeste 58 Nordeste 0 -- -- 74
2019-11-11 00:00:00 16.6 27 Nordeste 52 Nordeste 0 -- -- 76
2019-11-10 23:00:00 16.9 27 Nordeste 49 Nordeste 0 -- -- 73
2019-11-10 22:00:00 16.9 27 Nordeste 42 Nordeste 0 -- -- 75
2019-11-10 21:00:00 17.2 30 Nordeste 47 Nordeste 0 -- -- 88
2019-11-10 20:00:00 17.5 31 Nordeste 50 Nordeste 0 -- -- 90
2019-11-10 19:00:00 17.6 30 Nordeste 48 Nordeste 0 -- -- 85
2019-11-10 18:00:00 18.2 29 Nordeste 53 Nordeste 0 -- -- 86
2019-11-10 17:00:00 19.5 35 Nordeste 63 Nordeste 0 -- -- 69
2019-11-10 16:00:00 20.2 42 Nordeste 69 Nordeste 0 -- -- 59
2019-11-10 15:00:00 20.5 41 Nordeste 64 Nordeste 0 -- -- 63
2019-11-10 14:00:00 20.9 35 Nordeste 64 Este 0 -- -- 63
2019-11-10 13:00:00 20.5 40 Nordeste 65 Nordeste 0 -- -- 63
2019-11-10 12:00:00 20.3 40 Nordeste 71 Este 0 -- -- 63
2019-11-10 11:00:00 20.3 40 Nordeste 67 Nordeste 0 -- -- 54
2019-11-10 10:00:00 19.4 37 Nordeste 69 Nordeste 0 -- -- 55
2019-11-10 09:00:00 18.1 40 Nordeste 62 Nordeste 0 -- -- 64
2019-11-10 08:00:00 16.9 32 Nordeste 66 Nordeste 0 -- -- 64
2019-11-10 07:00:00 17.2 38 Nordeste 61 Nordeste 0 -- -- 64
2019-11-10 06:00:00 16.5 40 Nordeste 62 Nordeste 0 -- -- 62
2019-11-10 05:00:00 16.8 41 Nordeste 62 Nordeste 0 -- -- 67
2019-11-10 04:00:00 17.6 37 Nordeste 65 Nordeste 0 -- -- 67
2019-11-10 03:00:00 17.5 42 Nordeste 72 Nordeste 0 -- -- 61
2019-11-10 02:00:00 17.1 36 Nordeste 68 Nordeste 0 -- -- 59
2019-11-10 01:00:00 16.3 31 Nordeste 54 Nordeste 0 -- -- 76
2019-11-10 00:00:00 17 32 Nordeste 54 Nordeste 0 -- -- 64